createdAt,value
2023-01-29T00:01:27.838Z,6.88
2023-01-29T00:03:55.053Z,7.47
2023-01-29T00:06:23.580Z,7.85
2023-01-29T00:08:50.425Z,8.13
2023-01-29T00:11:17.345Z,7.07
2023-01-29T00:13:44.141Z,8.13
2023-01-29T00:16:11.057Z,7.78
2023-01-29T00:18:38.829Z,8.05
2023-01-29T00:21:09.222Z,8.05
2023-01-29T00:23:37.097Z,7.57
2023-01-29T00:26:04.224Z,8.25
2023-01-29T00:28:31.054Z,8.35
2023-01-29T00:30:58.652Z,8.93
2023-01-29T00:33:28.085Z,8.93
2023-01-29T00:35:57.940Z,7.68
2023-01-29T00:38:24.767Z,8.25
2023-01-29T00:41:10.464Z,7.88
2023-01-29T00:43:56.045Z,7.10
2023-01-29T00:46:22.944Z,7.32
2023-01-29T00:48:49.793Z,7.95
2023-01-29T00:51:16.639Z,7.50
2023-01-29T00:53:43.491Z,7.88
2023-01-29T00:56:11.307Z,7.97
2023-01-29T00:58:38.173Z,8.10
2023-01-29T01:01:05.207Z,7.55
2023-01-29T01:03:35.212Z,7.75
2023-01-29T01:06:06.098Z,7.65
2023-01-29T01:08:51.680Z,7.53
2023-01-29T01:11:18.556Z,7.32
2023-01-29T01:13:45.430Z,7.50
2023-01-29T01:16:14.398Z,7.93
2023-01-29T01:18:41.487Z,7.55
2023-01-29T01:21:08.790Z,6.93
2023-01-29T01:23:35.684Z,6.55
2023-01-29T01:26:02.688Z,6.80
2023-01-29T01:28:29.860Z,6.32
2023-01-29T01:30:56.786Z,6.97
2023-01-29T01:33:23.689Z,6.90
2023-01-29T01:35:50.541Z,7.43
2023-01-29T01:38:17.344Z,7.72
2023-01-29T01:40:45.532Z,7.20
2023-01-29T01:43:12.419Z,7.70
2023-01-29T01:45:39.436Z,7.50
2023-01-29T01:48:09.043Z,7.45
2023-01-29T01:50:45.250Z,7.63
2023-01-29T01:53:16.913Z,7.82
2023-01-29T01:56:05.124Z,7.97
2023-01-29T01:58:34.723Z,7.35
2023-01-29T02:01:02.064Z,7.57
2023-01-29T02:03:50.472Z,7.47
2023-01-29T02:06:36.303Z,7.35
2023-01-29T02:09:27.676Z,7.65
2023-01-29T02:11:54.597Z,7.00
2023-01-29T02:14:22.264Z,7.15
2023-01-29T02:16:49.311Z,6.45
2023-01-29T02:19:30.656Z,7.50
2023-01-29T02:21:57.955Z,6.13
2023-01-29T02:24:43.565Z,7.38
2023-01-29T02:27:10.451Z,7.25
2023-01-29T02:29:37.259Z,7.53
2023-01-29T02:32:14.487Z,6.78
2023-01-29T02:35:07.835Z,7.07
2023-01-29T02:37:39.184Z,6.75
2023-01-29T02:40:28.564Z,6.70
2023-01-29T02:43:08.736Z,6.70
2023-01-29T02:45:42.214Z,7.68
2023-01-29T02:48:11.777Z,7.15
2023-01-29T02:50:41.699Z,7.07
2023-01-29T02:53:13.594Z,6.15
2023-01-29T02:55:44.850Z,7.13
2023-01-29T02:58:17.308Z,6.78
2023-01-29T03:00:45.494Z,7.00
2023-01-29T03:03:15.034Z,7.07
2023-01-29T03:06:02.366Z,6.90
2023-01-29T03:08:37.159Z,7.38
2023-01-29T03:11:06.182Z,7.38
2023-01-29T03:13:42.346Z,6.85
2023-01-29T03:16:14.208Z,6.88
2023-01-29T03:18:46.154Z,7.18
2023-01-29T03:21:37.438Z,7.05
2023-01-29T03:24:24.786Z,6.80
2023-01-29T03:27:11.099Z,6.57
2023-01-29T03:29:56.976Z,7.47
2023-01-29T03:32:26.740Z,6.40
2023-01-29T03:34:57.381Z,7.15
2023-01-29T03:37:27.550Z,6.40
2023-01-29T03:39:55.620Z,6.82
2023-01-29T03:42:30.367Z,6.68
2023-01-29T03:45:12.587Z,6.53
2023-01-29T03:47:45.618Z,6.75
2023-01-29T03:50:21.703Z,6.28
2023-01-29T03:52:56.512Z,5.97
2023-01-29T03:55:29.301Z,6.57
2023-01-29T03:57:58.542Z,6.15
2023-01-29T04:00:29.735Z,6.40
2023-01-29T04:03:07.464Z,6.75
2023-01-29T04:05:41.044Z,6.72
2023-01-29T04:08:11.715Z,6.28
2023-01-29T04:10:39.521Z,6.50
2023-01-29T04:13:07.692Z,6.35
2023-01-29T04:15:38.221Z,5.93
2023-01-29T04:18:05.106Z,6.28
2023-01-29T04:20:32.227Z,6.30
2023-01-29T04:22:59.030Z,7.28
2023-01-29T04:25:29.628Z,6.65
2023-01-29T04:28:08.716Z,7.07
2023-01-29T04:31:05.310Z,6.20
2023-01-29T04:33:42.739Z,6.47
2023-01-29T04:36:35.940Z,6.47
2023-01-29T04:39:24.635Z,5.88
2023-01-29T04:42:00.776Z,6.57
2023-01-29T04:44:39.068Z,6.13
2023-01-29T04:47:12.041Z,6.07
2023-01-29T04:49:41.942Z,6.80
2023-01-29T04:52:29.461Z,6.72
2023-01-29T04:55:15.074Z,6.72
2023-01-29T04:57:51.239Z,6.40
2023-01-29T05:00:18.355Z,5.80
2023-01-29T05:02:45.835Z,6.68
2023-01-29T05:05:13.929Z,6.43
2023-01-29T05:07:42.551Z,6.68
2023-01-29T05:10:10.160Z,6.85
2023-01-29T05:12:37.948Z,6.88
2023-01-29T05:15:08.368Z,6.43
2023-01-29T05:17:35.380Z,6.78
2023-01-29T05:20:02.300Z,6.85
2023-01-29T05:22:29.671Z,6.10
2023-01-29T05:24:56.494Z,6.70
2023-01-29T05:27:48.037Z,7.00
2023-01-29T05:30:15.276Z,6.22
2023-01-29T05:32:42.335Z,6.05
2023-01-29T05:35:09.428Z,5.97
2023-01-29T05:37:36.275Z,6.40
2023-01-29T05:40:03.180Z,6.80
2023-01-29T05:42:30.246Z,6.07
2023-01-29T05:44:57.098Z,6.78
2023-01-29T05:47:24.013Z,6.50
2023-01-29T05:49:50.842Z,6.25
2023-01-29T05:52:17.687Z,6.53
2023-01-29T05:54:44.568Z,6.25
2023-01-29T05:57:11.405Z,6.68
2023-01-29T05:59:38.165Z,6.63
2023-01-29T06:02:05.048Z,5.97
2023-01-29T06:04:31.840Z,6.40
2023-01-29T06:06:58.653Z,5.47
2023-01-29T06:09:25.572Z,5.72
2023-01-29T06:11:52.517Z,5.50
2023-01-29T06:14:19.472Z,5.75
2023-01-29T06:16:46.299Z,5.25
2023-01-29T06:19:13.215Z,5.20
2023-01-29T06:21:40.051Z,6.03
2023-01-29T06:24:07.085Z,5.22
2023-01-29T06:26:33.956Z,5.90
2023-01-29T06:29:00.794Z,5.55
2023-01-29T06:31:38.484Z,5.25
2023-01-29T06:34:06.806Z,5.50
2023-01-29T06:36:33.730Z,5.32
2023-01-29T06:39:00.705Z,4.97
2023-01-29T06:41:27.624Z,5.43
2023-01-29T06:43:54.475Z,5.68
2023-01-29T06:46:21.305Z,5.57
2023-01-29T06:48:48.152Z,5.30
2023-01-29T06:51:15.007Z,5.00
2023-01-29T06:53:44.013Z,5.30
2023-01-29T06:56:12.296Z,5.35
2023-01-29T06:58:39.202Z,5.40
2023-01-29T07:01:10.263Z,5.63
2023-01-29T07:03:37.336Z,6.10
2023-01-29T07:06:04.793Z,5.50
2023-01-29T07:08:31.824Z,5.28
2023-01-29T07:11:00.192Z,5.53
2023-01-29T07:13:27.304Z,5.65
2023-01-29T07:15:54.158Z,5.50
2023-01-29T07:18:20.979Z,5.75
2023-01-29T07:20:47.850Z,6.18
2023-01-29T07:23:15.378Z,4.90
2023-01-29T07:25:42.528Z,5.88
2023-01-29T07:28:09.451Z,5.78
2023-01-29T07:30:36.401Z,5.03
2023-01-29T07:33:07.620Z,5.35
2023-01-29T07:35:43.887Z,5.45
2023-01-29T07:38:11.087Z,5.05
2023-01-29T07:40:38.056Z,5.50
2023-01-29T07:43:06.881Z,5.75
2023-01-29T07:45:37.302Z,5.75
2023-01-29T07:48:05.306Z,5.18
2023-01-29T07:50:32.640Z,5.78
2023-01-29T07:52:59.648Z,5.30
2023-01-29T07:55:26.526Z,5.15
2023-01-29T07:58:00.645Z,5.18
2023-01-29T08:00:27.682Z,4.90
2023-01-29T08:02:54.518Z,5.15
2023-01-29T08:05:21.353Z,5.55
2023-01-29T08:08:05.790Z,4.82
2023-01-29T08:10:34.863Z,4.93
2023-01-29T08:13:02.361Z,5.55
2023-01-29T08:15:29.696Z,5.10
2023-01-29T08:20:53.275Z,5.50
2023-01-29T08:23:20.442Z,4.65
2023-01-29T08:25:47.411Z,4.60
2023-01-29T08:28:14.390Z,5.32
2023-01-29T08:30:44.693Z,5.05
2023-01-29T08:33:11.543Z,4.82
2023-01-29T08:35:38.434Z,4.90
2023-01-29T08:38:05.587Z,5.65
2023-01-29T08:40:33.815Z,4.95
2023-01-29T08:43:02.699Z,3.85
2023-01-29T08:45:31.308Z,4.63
2023-01-29T08:48:00.639Z,4.60
2023-01-29T08:50:27.581Z,4.43
2023-01-29T08:52:58.043Z,4.55
2023-01-29T08:55:25.254Z,4.47
2023-01-29T08:57:52.171Z,4.85
2023-01-29T09:00:19.291Z,4.25
2023-01-29T09:02:46.192Z,4.07
2023-01-29T09:05:13.034Z,4.07
2023-01-29T09:07:39.871Z,4.55
2023-01-29T09:10:07.139Z,4.38
2023-01-29T09:12:33.975Z,4.82
2023-01-29T09:15:00.794Z,4.68
2023-01-29T09:17:27.619Z,4.55
2023-01-29T09:19:54.480Z,4.45
2023-01-29T09:22:21.411Z,4.70
2023-01-29T09:24:51.801Z,4.10
2023-01-29T09:27:26.432Z,4.63
2023-01-29T09:29:53.268Z,4.03
2023-01-29T09:32:49.699Z,3.83
2023-01-29T09:35:07.183Z,4.85
2023-01-29T09:37:34.029Z,4.03
2023-01-29T09:40:00.843Z,4.75
2023-01-29T09:42:36.747Z,4.25
2023-01-29T09:45:03.971Z,4.57
2023-01-29T09:47:32.081Z,4.30
2023-01-29T09:50:01.757Z,4.60
2023-01-29T09:52:31.988Z,4.95
2023-01-29T09:55:00.345Z,4.85
2023-01-29T09:57:48.935Z,4.35
2023-01-29T10:00:32.075Z,4.38
2023-01-29T10:03:15.589Z,4.60
2023-01-29T10:05:53.976Z,4.40
2023-01-29T10:08:47.091Z,3.90
2023-01-29T10:11:33.068Z,3.83
2023-01-29T10:14:34.523Z,4.05
2023-01-29T10:17:16.715Z,4.00
2023-01-29T10:19:55.285Z,3.85
2023-01-29T10:22:46.137Z,3.85
2023-01-29T10:25:25.804Z,3.22
2023-01-29T10:27:55.185Z,3.85
2023-01-29T10:30:25.669Z,4.22
2023-01-29T10:32:53.139Z,3.90
2023-01-29T10:35:30.458Z,3.78
2023-01-29T10:38:01.715Z,3.95
2023-01-29T10:40:28.588Z,4.15
2023-01-29T10:43:00.727Z,3.95
2023-01-29T10:45:27.696Z,3.90
2023-01-29T10:47:54.547Z,3.90
2023-01-29T10:50:24.485Z,3.92
2023-01-29T10:53:09.636Z,4.07
2023-01-29T10:55:45.545Z,4.07
2023-01-29T10:58:15.525Z,3.70
2023-01-29T11:00:42.570Z,4.35
2023-01-29T11:03:27.084Z,4.03
2023-01-29T11:06:04.362Z,3.20
2023-01-29T11:08:40.115Z,4.07
2023-01-29T11:11:17.620Z,3.50
2023-01-29T11:13:47.590Z,3.65
2023-01-29T11:16:14.573Z,3.42
2023-01-29T11:18:55.644Z,3.58
2023-01-29T11:21:23.764Z,3.38
2023-01-29T11:23:51.267Z,3.15
2023-01-29T11:26:20.794Z,2.95
2023-01-29T11:28:49.156Z,2.95
2023-01-29T11:31:21.328Z,3.10
2023-01-29T11:33:48.723Z,2.38
2023-01-29T11:36:41.807Z,2.85
2023-01-29T11:39:08.600Z,2.38
2023-01-29T11:41:47.425Z,2.53
2023-01-29T11:44:18.542Z,2.58
2023-01-29T11:46:45.676Z,3.00
2023-01-29T11:49:21.749Z,2.97
2023-01-29T11:51:52.428Z,3.40
2023-01-29T11:54:20.566Z,2.95
2023-01-29T11:56:48.200Z,3.15
2023-01-29T11:59:30.245Z,3.20
2023-01-29T12:02:03.932Z,3.70
2023-01-29T12:04:34.091Z,3.67
2023-01-29T12:07:00.934Z,3.65
2023-01-29T12:09:28.891Z,3.63
2023-01-29T12:11:56.010Z,3.78
2023-01-29T12:14:32.205Z,3.47
2023-01-29T12:17:12.934Z,3.63
2023-01-29T12:19:39.728Z,3.55
2023-01-29T12:22:10.836Z,3.63
2023-01-29T12:24:42.797Z,3.20
2023-01-29T12:27:18.208Z,3.17
2023-01-29T12:30:14.588Z,3.42
2023-01-29T12:32:49.899Z,3.33
2023-01-29T12:35:43.389Z,3.55
2023-01-29T12:38:20.517Z,3.33
2023-01-29T12:40:49.757Z,3.13
2023-01-29T12:43:17.856Z,2.78
2023-01-29T12:45:47.165Z,3.35
2023-01-29T12:48:17.256Z,3.00
2023-01-29T12:50:44.604Z,2.50
2023-01-29T12:53:29.137Z,2.75
2023-01-29T12:55:59.318Z,3.00
2023-01-29T12:58:32.232Z,2.83
2023-01-29T13:01:03.392Z,2.40
2023-01-29T13:03:35.247Z,2.80
2023-01-29T13:06:02.170Z,2.63
2023-01-29T13:08:32.030Z,2.53
2023-01-29T13:11:01.587Z,2.17
2023-01-29T13:13:34.583Z,2.50
2023-01-29T13:16:03.875Z,2.25
2023-01-29T13:18:40.297Z,2.03
2023-01-29T13:21:11.329Z,2.13
2023-01-29T13:23:39.468Z,2.40
2023-01-29T13:26:06.692Z,1.85
2023-01-29T13:28:33.572Z,2.03
2023-01-29T13:31:29.802Z,2.03
2023-01-29T13:34:04.216Z,1.70
2023-01-29T13:36:31.862Z,1.85
2023-01-29T13:39:01.053Z,1.45
2023-01-29T13:41:36.107Z,1.73
2023-01-29T13:44:04.803Z,1.48
2023-01-29T13:46:32.147Z,1.45
2023-01-29T13:49:01.652Z,1.48
2023-01-29T13:51:32.268Z,1.75
2023-01-29T13:54:05.277Z,1.40
2023-01-29T13:56:35.197Z,1.30
2023-01-29T13:59:03.356Z,1.63
2023-01-29T14:02:00.490Z,1.50
2023-01-29T14:04:29.281Z,1.67
2023-01-29T14:06:56.994Z,1.60
2023-01-29T14:09:31.675Z,1.73
2023-01-29T14:11:58.895Z,1.98
2023-01-29T14:14:44.676Z,1.58
2023-01-29T14:17:12.139Z,2.03
2023-01-29T14:19:46.529Z,1.80
2023-01-29T14:22:30.261Z,2.13
2023-01-29T14:25:00.483Z,2.13
2023-01-29T14:27:27.694Z,1.80
2023-01-29T14:30:08.149Z,1.95
2023-01-29T14:32:38.846Z,2.35
2023-01-29T14:35:26.110Z,2.42
2023-01-29T14:37:54.988Z,2.08
2023-01-29T14:40:25.828Z,2.08
2023-01-29T14:42:52.654Z,1.90
2023-01-29T14:45:25.654Z,1.77
2023-01-29T14:47:53.551Z,2.30
2023-01-29T14:50:23.380Z,2.33
2023-01-29T14:52:54.067Z,2.22
2023-01-29T14:55:24.015Z,1.80
2023-01-29T14:57:51.401Z,1.73
2023-01-29T15:00:45.638Z,1.40
2023-01-29T15:03:17.309Z,1.45
2023-01-29T15:05:49.464Z,1.48
2023-01-29T15:08:39.481Z,1.45
2023-01-29T15:11:36.195Z,1.80
2023-01-29T15:16:56.485Z,1.40
2023-01-29T15:19:26.452Z,1.30
2023-01-29T15:22:10.958Z,1.80
2023-01-29T15:24:38.972Z,1.30
2023-01-29T15:27:07.139Z,1.17
2023-01-29T15:29:34.188Z,1.20
2023-01-29T15:32:01.385Z,1.73
2023-01-29T15:34:28.391Z,1.40
2023-01-29T15:36:58.011Z,1.30
2023-01-29T15:39:30.023Z,2.03
2023-01-29T15:42:16.081Z,1.50
2023-01-29T15:44:49.141Z,1.80
2023-01-29T15:47:16.280Z,1.25
2023-01-29T15:49:45.575Z,1.30
2023-01-29T15:52:23.903Z,1.30
2023-01-29T15:54:51.417Z,1.30
2023-01-29T15:57:20.852Z,1.70
2023-01-29T15:59:51.801Z,1.48
2023-01-29T16:02:33.525Z,1.70
2023-01-29T16:05:02.945Z,1.90
2023-01-29T16:07:32.564Z,2.10
2023-01-29T16:09:59.951Z,2.60
2023-01-29T16:12:27.566Z,2.53
2023-01-29T16:14:55.519Z,1.85
2023-01-29T16:17:24.437Z,1.70
2023-01-29T16:19:58.750Z,1.90
2023-01-29T16:22:34.596Z,1.70
2023-01-29T16:25:05.286Z,1.77
2023-01-29T16:27:33.352Z,2.22
2023-01-29T16:30:02.229Z,3.22
2023-01-29T16:32:30.120Z,3.20
2023-01-29T16:34:59.017Z,2.22
2023-01-29T16:37:30.624Z,1.80
2023-01-29T16:40:00.435Z,1.85
2023-01-29T16:42:30.983Z,1.90
2023-01-29T16:44:57.793Z,2.03
2023-01-29T16:47:29.826Z,1.80
2023-01-29T16:50:00.637Z,1.70
2023-01-29T16:52:34.348Z,1.60
2023-01-29T16:55:13.482Z,1.50
2023-01-29T16:57:43.653Z,1.42
2023-01-29T17:00:19.100Z,1.25
2023-01-29T17:02:46.110Z,1.30
2023-01-29T17:05:36.613Z,1.30
2023-01-29T17:10:32.806Z,1.27
2023-01-29T17:13:01.989Z,1.30
2023-01-29T17:15:47.969Z,1.10
2023-01-29T17:18:22.238Z,1.05
2023-01-29T17:20:49.634Z,1.20
2023-01-29T17:23:19.861Z,1.33
2023-01-29T17:25:49.591Z,1.02
2023-01-29T17:28:17.339Z,0.98
2023-01-29T17:30:50.673Z,0.90
2023-01-29T17:33:28.348Z,0.82
2023-01-29T17:35:55.277Z,0.77
2023-01-29T17:38:26.638Z,1.10
2023-01-29T17:41:24.803Z,1.05
2023-01-29T17:43:54.318Z,1.27
2023-01-29T17:46:25.005Z,1.80
2023-01-29T17:48:54.586Z,1.05
2023-01-29T17:51:25.067Z,0.80
2023-01-29T17:53:52.220Z,0.90
2023-01-29T17:56:32.174Z,0.98
2023-01-29T17:59:04.136Z,0.90
2023-01-29T18:01:35.368Z,0.90
2023-01-29T18:04:05.488Z,0.82
2023-01-29T18:06:32.821Z,0.80
2023-01-29T18:09:02.158Z,0.57
2023-01-29T18:11:31.873Z,1.88
2023-01-29T18:14:01.300Z,3.40
2023-01-29T18:16:37.510Z,1.27
2023-01-29T18:19:12.460Z,1.40
2023-01-29T18:21:41.800Z,1.42
2023-01-29T18:24:11.053Z,1.23
2023-01-29T18:26:40.760Z,1.95
2023-01-29T18:29:10.486Z,1.00
2023-01-29T18:31:39.494Z,0.98
2023-01-29T18:34:06.440Z,0.90
2023-01-29T18:36:33.294Z,1.00
2023-01-29T18:39:00.203Z,0.93
2023-01-29T18:41:27.023Z,2.50
2023-01-29T18:43:54.227Z,2.67
2023-01-29T18:46:22.426Z,2.25
2023-01-29T18:48:49.280Z,1.30
2023-01-29T18:51:16.150Z,1.20
2023-01-29T18:53:47.276Z,1.30
2023-01-29T18:56:14.189Z,1.40
2023-01-29T18:58:41.102Z,1.25
2023-01-29T19:01:10.908Z,1.50
2023-01-29T19:03:38.785Z,1.75
2023-01-29T19:06:10.462Z,1.17
2023-01-29T19:08:37.933Z,1.27
2023-01-29T19:11:10.667Z,1.52
2023-01-29T19:13:40.849Z,1.23
2023-01-29T19:16:09.105Z,1.40
2023-01-29T19:18:36.229Z,1.42
2023-01-29T19:21:06.640Z,1.50
2023-01-29T19:23:33.511Z,1.42
2023-01-29T19:26:00.452Z,1.52
2023-01-29T19:28:27.595Z,1.40
2023-01-29T19:30:59.308Z,1.15
2023-01-29T19:33:27.802Z,1.15
2023-01-29T19:35:58.467Z,1.20
2023-01-29T19:38:28.289Z,1.10
2023-01-29T19:40:55.444Z,1.10
2023-01-29T19:43:25.092Z,1.27
2023-01-29T19:45:57.201Z,1.00
2023-01-29T19:48:24.219Z,1.10
2023-01-29T19:50:52.501Z,1.05
2023-01-29T19:53:19.462Z,1.00
2023-01-29T19:55:46.316Z,1.08
2023-01-29T19:58:13.917Z,1.10
2023-01-29T20:00:40.749Z,1.13
2023-01-29T20:03:07.684Z,1.23
2023-01-29T20:05:35.596Z,1.80
2023-01-29T20:08:02.539Z,1.10
2023-01-29T20:10:29.341Z,1.50
2023-01-29T20:12:56.589Z,1.20
2023-01-29T20:15:23.449Z,1.33
2023-01-29T20:17:50.287Z,1.40
2023-01-29T20:20:17.778Z,1.27
2023-01-29T20:22:44.820Z,1.40
2023-01-29T20:25:13.746Z,1.27
2023-01-29T20:27:40.939Z,1.27
2023-01-29T20:30:08.320Z,1.58
2023-01-29T20:32:35.439Z,1.50
2023-01-29T20:35:02.539Z,1.25
2023-01-29T20:37:29.408Z,1.58
2023-01-29T20:39:56.251Z,1.77
2023-01-29T20:42:23.115Z,1.55
2023-01-29T20:44:49.901Z,1.77
2023-01-29T20:47:16.693Z,1.60
2023-01-29T20:49:43.600Z,1.55
2023-01-29T20:52:10.940Z,1.40
2023-01-29T20:54:37.828Z,1.80
2023-01-29T20:57:05.005Z,1.90
2023-01-29T20:59:31.992Z,1.73
2023-01-29T21:01:58.888Z,2.03
2023-01-29T21:04:25.860Z,1.83
2023-01-29T21:06:52.965Z,2.28
2023-01-29T21:09:20.572Z,1.67
2023-01-29T21:11:47.486Z,2.08
2023-01-29T21:14:14.532Z,2.00
2023-01-29T21:16:41.570Z,2.17
2023-01-29T21:19:08.835Z,1.77
2023-01-29T21:21:35.732Z,2.00
2023-01-29T21:24:02.636Z,2.22
2023-01-29T21:26:29.476Z,2.05
2023-01-29T21:28:56.456Z,1.92
2023-01-29T21:31:23.436Z,2.20
2023-01-29T21:33:50.347Z,3.85
2023-01-29T21:36:17.395Z,5.00
2023-01-29T21:38:44.265Z,12.80
2023-01-29T21:41:11.164Z,3.72
2023-01-29T21:43:39.041Z,2.45
2023-01-29T21:46:11.926Z,7.30
2023-01-29T21:48:39.798Z,4.22
2023-01-29T21:51:06.777Z,4.82
2023-01-29T21:53:33.824Z,5.40
2023-01-29T21:56:01.433Z,2.50
2023-01-29T21:58:28.486Z,5.40
2023-01-29T22:00:55.346Z,4.25
2023-01-29T22:03:22.227Z,2.50
2023-01-29T22:05:50.167Z,2.83
2023-01-29T22:08:21.150Z,2.50
2023-01-29T22:10:50.789Z,4.97
2023-01-29T22:13:18.670Z,5.55
2023-01-29T22:15:45.622Z,2.47
2023-01-29T22:18:12.459Z,2.95
2023-01-29T22:20:39.520Z,2.65
2023-01-29T22:23:08.945Z,2.75
2023-01-29T22:25:38.797Z,2.40
2023-01-29T22:28:05.892Z,2.15
2023-01-29T22:30:35.487Z,2.50
2023-01-29T22:33:05.177Z,2.78
2023-01-29T22:35:32.263Z,2.85
2023-01-29T22:38:01.963Z,2.50
2023-01-29T22:40:28.898Z,2.42
2023-01-29T22:42:58.837Z,2.50
2023-01-29T22:45:28.714Z,2.50
2023-01-29T22:47:56.188Z,2.38
2023-01-29T22:50:23.084Z,2.25
2023-01-29T22:52:53.825Z,2.25
2023-01-29T22:55:21.007Z,2.15
2023-01-29T22:57:51.013Z,2.17
2023-01-29T23:00:18.414Z,2.70
2023-01-29T23:02:48.906Z,2.13
2023-01-29T23:05:16.541Z,2.15
2023-01-29T23:07:43.602Z,2.78
2023-01-29T23:10:11.461Z,2.25
2023-01-29T23:12:38.293Z,1.98
2023-01-29T23:15:05.683Z,2.10
2023-01-29T23:17:32.846Z,1.95
2023-01-29T23:19:59.696Z,2.17
2023-01-29T23:22:26.481Z,2.22
2023-01-29T23:24:53.265Z,2.30
2023-01-29T23:27:20.175Z,1.80
2023-01-29T23:29:47.618Z,1.73
2023-01-29T23:32:15.565Z,2.28
2023-01-29T23:34:42.593Z,2.22
2023-01-29T23:37:09.532Z,2.20
2023-01-29T23:39:36.450Z,2.20
2023-01-29T23:42:03.626Z,1.88
2023-01-29T23:44:30.491Z,1.85
2023-01-29T23:46:58.327Z,1.60
2023-01-29T23:49:25.350Z,1.67
2023-01-29T23:51:52.245Z,1.73
2023-01-29T23:54:19.056Z,1.83
2023-01-29T23:56:45.977Z,2.00
2023-01-29T23:59:13.025Z,1.70
